Time;durP1;ratioP1;P1;durP2;ratioP2;P2;SDS_P1;SDS_P2;PMS_P1;PMS_P2;Temp;Humidity;BMP_temperature;BMP_pressure;BME280_temperature;BME280_humidity;BME280_pressure;Samples;Min_cycle;Max_cycle;Signal;HPM_P1;HPM_P2
2023/11/29 00:00:24;;;;;;;5.70;5.17;;;;;;;-0.42;100.00;98173.78;5083187;28;20688;-80
2023/11/29 00:02:50;;;;;;;5.83;5.23;;;;;;;-0.46;100.00;98179.41;5095187;28;20215;-80
2023/11/29 00:05:19;;;;;;;5.77;5.17;;;;;;;-0.42;100.00;98184.31;5107233;28;20268;-80
2023/11/29 00:07:55;;;;;;;5.93;4.97;;;;;;;-0.38;100.00;98183.78;5097276;28;20199;-82
2023/11/29 00:10:23;;;;;;;5.40;4.83;;;;;;;-0.35;100.00;98193.09;5100445;28;20265;-80
2023/11/29 00:12:51;;;;;;;5.50;4.70;;;;;;;-0.37;100.00;98181.97;5102502;28;20196;-82
2023/11/29 00:15:18;;;;;;;4.97;4.43;;;;;;;-0.38;100.00;98196.09;5086261;28;20218;-80
2023/11/29 00:17:45;;;;;;;6.33;5.10;;;;;;;-0.40;100.00;98195.47;5097674;28;20660;-81
2023/11/29 00:20:12;;;;;;;6.20;5.43;;;;;;;-0.40;100.00;98196.28;5069694;28;20200;-79
2023/11/29 00:22:43;;;;;;;6.23;5.63;;;;;;;-0.35;100.00;98206.25;5110036;27;20204;-79
2023/11/29 00:25:10;;;;;;;6.67;5.97;;;;;;;-0.32;100.00;98190.91;5108403;28;20663;-80
2023/11/29 00:27:37;;;;;;;6.20;5.60;;;;;;;-0.33;100.00;98191.94;5104005;28;20235;-79
2023/11/29 00:30:09;;;;;;;6.40;5.50;;;;;;;-0.32;100.00;98196.16;5097461;28;20530;-80
2023/11/29 00:32:39;;;;;;;5.67;5.07;;;;;;;-0.31;100.00;98210.13;5105545;28;20241;-80
2023/11/29 00:35:07;;;;;;;6.43;5.40;;;;;;;-0.28;100.00;98215.84;5064056;28;20225;-81
2023/11/29 00:37:35;;;;;;;5.93;5.33;;;;;;;-0.12;100.00;98215.63;5099214;28;20208;-80
2023/11/29 00:40:05;;;;;;;6.03;5.43;;;;;;;-0.13;100.00;98227.16;5094147;28;20187;-81
2023/11/29 00:42:32;;;;;;;5.50;5.00;;;;;;;-0.19;100.00;98227.94;5093450;28;20290;-79
2023/11/29 00:45:04;;;;;;;6.20;5.30;;;;;;;-0.15;100.00;98225.72;5094325;28;20206;-79
2023/11/29 00:47:32;;;;;;;5.27;4.77;;;;;;;-0.08;100.00;98229.22;5093620;28;20704;-79
2023/11/29 00:49:59;;;;;;;6.20;5.60;;;;;;;-0.19;100.00;98232.38;5096558;28;20322;-82
2023/11/29 00:52:32;;;;;;;5.80;5.20;;;;;;;-0.05;100.00;98232.31;5080075;28;20690;-80
2023/11/29 00:55:00;;;;;;;5.13;4.63;;;;;;;-0.12;100.00;98238.50;5099465;28;20207;-79
2023/11/29 00:57:26;;;;;;;5.50;5.00;;;;;;;-0.08;100.00;98240.59;5096108;28;20257;-81
2023/11/29 00:59:56;;;;;;;5.17;4.67;;;;;;;-0.15;100.00;98250.25;5105648;28;20211;-81
2023/11/29 01:02:26;;;;;;;5.47;4.63;;;;;;;-0.21;100.00;98248.34;5100280;28;20240;-78
2023/11/29 01:04:53;;;;;;;4.70;4.30;;;;;;;-0.14;100.00;98264.22;5099699;28;20303;-79
2023/11/29 01:07:21;;;;;;;5.43;4.70;;;;;;;-0.26;100.00;98273.56;5097998;28;20726;-80
2023/11/29 01:09:48;;;;;;;4.90;4.50;;;;;;;-0.35;100.00;98277.31;5089300;28;20176;-79
2023/11/29 01:12:17;;;;;;;5.20;4.70;;;;;;;-0.40;100.00;98290.19;5096001;28;20184;-81
2023/11/29 01:14:44;;;;;;;6.60;5.70;;;;;;;-0.50;100.00;98295.72;5091884;28;20193;-79
2023/11/29 01:17:11;;;;;;;6.27;5.27;;;;;;;-0.51;100.00;98300.16;5095986;28;20278;-80
2023/11/29 01:19:40;;;;;;;5.43;4.73;;;;;;;-0.56;100.00;98307.78;5095244;28;20230;-78
2023/11/29 01:22:09;;;;;;;5.73;4.93;;;;;;;-0.53;100.00;98307.44;5101492;28;21489;-81
2023/11/29 01:24:36;;;;;;;6.13;5.27;;;;;;;-0.54;100.00;98302.34;5101315;28;20656;-79
2023/11/29 01:27:03;;;;;;;5.53;5.03;;;;;;;-0.51;100.00;98309.88;5095081;28;20269;-80
2023/11/29 01:29:30;;;;;;;5.40;4.80;;;;;;;-0.41;100.00;98306.97;5077485;28;20664;-80
2023/11/29 01:31:59;;;;;;;5.93;4.77;;;;;;;-0.54;100.00;98310.25;5096011;28;20204;-79
2023/11/29 01:34:29;;;;;;;5.83;5.23;;;;;;;-0.55;100.00;98312.06;5096621;28;20235;-79
2023/11/29 01:36:56;;;;;;;6.33;5.73;;;;;;;-0.50;100.00;98312.34;5097530;28;20299;-80
2023/11/29 01:39:29;;;;;;;5.47;4.90;;;;;;;-0.49;100.00;98306.09;5092893;28;20200;-82
2023/11/29 01:41:56;;;;;;;6.10;5.50;;;;;;;-0.49;100.00;98311.34;5099772;28;20257;-82
2023/11/29 01:44:24;;;;;;;6.10;5.50;;;;;;;-0.47;100.00;98314.59;5085506;28;20207;-80
2023/11/29 01:46:59;;;;;;;6.60;5.80;;;;;;;-0.43;100.00;98316.88;5095083;28;20247;-82
2023/11/29 01:49:28;;;;;;;7.30;6.30;;;;;;;-0.51;100.00;98328.28;5085908;28;20239;-79
2023/11/29 01:52:04;;;;;;;7.37;6.10;;;;;;;-0.53;100.00;98327.66;5105237;28;20195;-80
2023/11/29 01:54:31;;;;;;;7.03;6.30;;;;;;;-0.57;100.00;98337.75;5090762;28;20688;-80
2023/11/29 01:56:57;;;;;;;6.90;6.03;;;;;;;-0.60;100.00;98332.81;5087818;28;20199;-79
2023/11/29 01:59:24;;;;;;;7.60;6.60;;;;;;;-0.62;100.00;98329.56;5107645;28;20195;-80
2023/11/29 02:01:51;;;;;;;7.87;6.63;;;;;;;-0.64;100.00;98331.56;5097414;28;20569;-80
2023/11/29 02:04:21;;;;;;;8.77;6.27;;;;;;;-0.70;100.00;98348.03;5098865;28;20220;-78
2023/11/29 02:06:52;;;;;;;7.97;6.73;;;;;;;-0.71;100.00;98348.25;5095592;28;20629;-81
2023/11/29 02:09:19;;;;;;;9.00;6.83;;;;;;;-0.74;100.00;98345.97;5083389;28;20203;-80
2023/11/29 02:11:47;;;;;;;8.23;7.33;;;;;;;-0.88;100.00;98348.38;5084322;28;20210;-80
2023/11/29 02:14:14;;;;;;;8.67;7.77;;;;;;;-0.91;100.00;98351.38;5104999;28;20578;-80
2023/11/29 02:16:42;;;;;;;9.00;8.10;;;;;;;-0.89;100.00;98359.88;5099713;28;20207;-80
2023/11/29 02:19:09;;;;;;;9.33;8.20;;;;;;;-0.94;100.00;98358.81;5081094;28;20196;-80
2023/11/29 02:21:37;;;;;;;9.70;8.37;;;;;;;-0.90;100.00;98363.53;5097971;28;20224;-79
2023/11/29 02:24:11;;;;;;;9.20;8.27;;;;;;;-0.91;100.00;98366.34;5093789;28;20208;-80
2023/11/29 02:26:38;;;;;;;9.63;8.63;;;;;;;-0.92;100.00;98362.06;5102657;28;20212;-80
2023/11/29 02:29:11;;;;;;;10.30;8.73;;;;;;;-0.99;100.00;98364.59;5084760;28;20206;-78
2023/11/29 02:31:38;;;;;;;10.53;8.30;;;;;;;-1.06;100.00;98365.47;5095523;28;20192;-80
2023/11/29 02:34:05;;;;;;;10.50;8.73;;;;;;;-1.16;100.00;98368.34;5091674;28;20229;-80
2023/11/29 02:36:32;;;;;;;10.27;9.07;;;;;;;-1.24;100.00;98360.50;5099302;28;20656;-81
2023/11/29 02:39:01;;;;;;;10.13;8.93;;;;;;;-1.23;100.00;98361.34;5067656;28;20202;-79
2023/11/29 02:41:29;;;;;;;9.63;8.63;;;;;;;-1.19;100.00;98362.63;5106340;28;20192;-79
2023/11/29 02:43:56;;;;;;;10.93;8.77;;;;;;;-1.27;100.00;98368.75;5086641;28;20250;-80
2023/11/29 02:46:26;;;;;;;9.33;8.03;;;;;;;-1.29;100.00;98381.25;5092430;28;20232;-79
2023/11/29 02:48:57;;;;;;;9.77;7.87;;;;;;;-1.36;100.00;98381.16;5107141;28;20195;-79
2023/11/29 02:51:25;;;;;;;9.97;8.03;;;;;;;-1.46;100.00;98379.72;5101148;28;20250;-80
2023/11/29 02:53:52;;;;;;;10.43;8.40;;;;;;;-1.43;100.00;98384.63;5091412;28;20274;-80
2023/11/29 02:56:22;;;;;;;9.87;7.87;;;;;;;-1.48;100.00;98379.06;5097548;28;20680;-79
2023/11/29 02:58:48;;;;;;;9.47;7.73;;;;;;;-1.45;100.00;98392.69;5096660;28;20188;-80
2023/11/29 03:01:16;;;;;;;10.50;8.70;;;;;;;-1.46;100.00;98387.59;5091018;28;20709;-79
2023/11/29 03:03:44;;;;;;;9.13;7.77;;;;;;;-1.48;100.00;98385.13;5104128;28;20667;-81
2023/11/29 03:06:15;;;;;;;9.30;8.20;;;;;;;-1.53;100.00;98390.09;5100406;28;20285;-79
2023/11/29 03:08:44;;;;;;;11.20;8.27;;;;;;;-1.52;100.00;98397.00;5081481;28;20665;-80
2023/11/29 03:11:12;;;;;;;10.60;8.10;;;;;;;-1.49;100.00;98395.81;5107590;28;20192;-79
2023/11/29 03:13:39;;;;;;;10.63;8.53;;;;;;;-1.53;100.00;98399.78;5103239;28;20188;-79
2023/11/29 03:16:12;;;;;;;9.93;7.97;;;;;;;-1.45;100.00;98392.69;5085651;28;20287;-80
2023/11/29 03:18:38;;;;;;;8.60;7.30;;;;;;;-1.45;100.00;98402.38;5103843;28;20199;-78
2023/11/29 03:21:06;;;;;;;9.17;6.77;;;;;;;-1.31;100.00;98399.00;5105031;27;20275;-80
2023/11/29 03:23:35;;;;;;;8.20;6.20;;;;;;;-1.42;100.00;98404.66;5101156;28;20723;-79
2023/11/29 03:26:05;;;;;;;8.40;6.10;;;;;;;-1.41;100.00;98399.22;5096802;28;20192;-79
2023/11/29 03:28:32;;;;;;;8.90;6.80;;;;;;;-1.42;100.00;98402.03;5099615;28;20188;-80
2023/11/29 03:31:00;;;;;;;8.37;6.57;;;;;;;-1.52;100.00;98404.03;5102945;28;20211;-79
2023/11/29 03:33:27;;;;;;;7.90;6.40;;;;;;;-1.51;100.00;98411.75;5108072;28;20210;-80
2023/11/29 03:35:57;;;;;;;9.43;7.03;;;;;;;-1.50;100.00;98415.22;5110596;28;20237;-80
2023/11/29 03:38:24;;;;;;;9.90;6.30;;;;;;;-1.53;100.00;98413.72;5099701;28;20203;-80
2023/11/29 03:40:51;;;;;;;9.03;6.40;;;;;;;-1.46;100.00;98417.31;5101038;28;20207;-78
2023/11/29 03:43:21;;;;;;;8.67;6.50;;;;;;;-1.61;100.00;98415.59;5084334;28;20257;-80
2023/11/29 03:45:49;;;;;;;8.13;6.50;;;;;;;-1.64;100.00;98423.81;5102577;28;20202;-80
2023/11/29 03:48:18;;;;;;;7.93;6.40;;;;;;;-1.65;100.00;98435.31;5100820;28;20216;-80
2023/11/29 03:50:45;;;;;;;7.83;6.13;;;;;;;-1.61;100.00;98434.78;5106602;28;20236;-80
2023/11/29 03:53:12;;;;;;;7.80;6.40;;;;;;;-1.61;100.00;98444.47;5102965;28;20299;-80
2023/11/29 03:55:46;;;;;;;8.10;6.40;;;;;;;-1.60;100.00;98444.31;5101191;28;20219;-79
2023/11/29 03:58:19;;;;;;;7.47;5.87;;;;;;;-1.70;100.00;98450.75;5076249;28;20262;-78
2023/11/29 04:00:49;;;;;;;7.73;6.50;;;;;;;-1.78;100.00;98454.25;5102674;28;20608;-79
2023/11/29 04:03:22;;;;;;;8.50;6.37;;;;;;;-1.63;100.00;98455.16;5097519;28;20277;-80
2023/11/29 04:05:49;;;;;;;8.70;6.97;;;;;;;-1.69;100.00;98449.78;5072355;28;20215;-80
2023/11/29 04:08:17;;;;;;;7.47;6.60;;;;;;;-1.68;100.00;98460.09;5082695;28;20228;-80
2023/11/29 04:10:44;;;;;;;8.00;6.47;;;;;;;-1.66;100.00;98457.31;5104883;28;20191;-80
2023/11/29 04:13:11;;;;;;;9.23;6.80;;;;;;;-1.63;100.00;98463.03;5106825;28;20211;-80
2023/11/29 04:15:38;;;;;;;8.80;6.87;;;;;;;-1.69;100.00;98460.28;5090011;28;20274;-80
2023/11/29 04:18:07;;;;;;;8.97;6.73;;;;;;;-1.67;100.00;98461.72;5096676;28;20200;-81
2023/11/29 04:20:35;;;;;;;9.77;7.70;;;;;;;-1.73;100.00;98461.63;5099134;28;20291;-79
2023/11/29 04:23:01;;;;;;;10.57;8.07;;;;;;;-1.82;100.00;98487.88;5102065;28;20232;-81
2023/11/29 04:25:34;;;;;;;11.50;8.43;;;;;;;-1.83;100.00;98477.56;5093202;28;20286;-79
2023/11/29 04:28:03;;;;;;;9.47;7.73;;;;;;;-1.89;100.00;98480.84;5103411;28;20234;-79
2023/11/29 04:30:30;;;;;;;11.30;8.30;;;;;;;-1.92;100.00;98481.19;5102165;28;20199;-83
2023/11/29 04:32:57;;;;;;;10.93;7.70;;;;;;;-1.98;100.00;98453.00;5109731;28;20203;-81
2023/11/29 04:35:24;;;;;;;10.50;7.97;;;;;;;-1.94;100.00;98470.03;5108370;28;20224;-78
2023/11/29 04:37:51;;;;;;;10.23;7.53;;;;;;;-2.11;100.00;98461.41;5100559;28;20274;-78
2023/11/29 04:40:29;;;;;;;9.07;7.13;;;;;;;-2.18;100.00;98467.47;5097105;28;20282;-80
2023/11/29 04:42:56;;;;;;;9.13;7.20;;;;;;;-2.33;100.00;98455.03;5114005;27;20319;-80
2023/11/29 04:45:22;;;;;;;9.97;7.33;;;;;;;-2.40;100.00;98446.19;5095556;28;20185;-79
2023/11/29 04:47:51;;;;;;;10.40;8.20;;;;;;;-2.44;100.00;98450.13;5083975;28;21087;-80
2023/11/29 04:50:21;;;;;;;10.67;7.80;;;;;;;-2.52;100.00;98442.25;5103341;28;20242;-79
2023/11/29 04:52:49;;;;;;;9.57;7.53;;;;;;;-2.61;100.00;98445.88;5099868;28;20668;-80
2023/11/29 04:55:21;;;;;;;10.97;8.37;;;;;;;-2.56;100.00;98437.50;5090825;28;20285;-80
2023/11/29 04:57:48;;;;;;;10.60;7.90;;;;;;;-2.57;100.00;98436.72;5098179;28;20197;-80
2023/11/29 05:00:18;;;;;;;9.93;7.67;;;;;;;-2.53;100.00;98434.56;5101843;28;20253;-79
2023/11/29 05:02:45;;;;;;;10.73;7.60;;;;;;;-2.58;100.00;98435.06;5096259;28;20192;-80
2023/11/29 05:05:12;;;;;;;11.47;8.00;;;;;;;-2.48;100.00;98400.81;5098817;28;20213;-80
2023/11/29 05:07:40;;;;;;;10.07;7.97;;;;;;;-2.44;100.00;98410.78;5089233;28;20216;-80
2023/11/29 05:10:10;;;;;;;11.23;8.13;;;;;;;-2.45;100.00;98411.78;5089572;28;20195;-80
2023/11/29 05:12:37;;;;;;;9.20;7.27;;;;;;;-2.41;100.00;98413.06;5093858;28;20215;-80
2023/11/29 05:15:05;;;;;;;10.83;7.90;;;;;;;-2.35;100.00;98417.66;5088613;28;20690;-80
2023/11/29 05:17:34;;;;;;;10.23;7.30;;;;;;;-2.39;100.00;98418.16;5092627;28;20246;-81
2023/11/29 05:20:26;;;;;;;10.60;6.93;;;;;;;-2.33;100.00;98425.34;5091973;28;20204;-81
2023/11/29 05:22:54;;;;;;;10.17;7.80;;;;;;;-2.31;100.00;98426.00;5093288;28;20188;-80
2023/11/29 05:25:21;;;;;;;10.53;7.57;;;;;;;-2.29;100.00;98426.69;5095445;28;20256;-79
2023/11/29 05:27:51;;;;;;;9.67;7.57;;;;;;;-2.35;100.00;98425.53;5096436;28;20208;-79
2023/11/29 05:30:19;;;;;;;11.03;7.67;;;;;;;-2.47;100.00;98420.81;5094938;28;20203;-80
2023/11/29 05:32:49;;;;;;;10.73;7.80;;;;;;;-2.47;100.00;98429.47;5080852;28;20200;-80
2023/11/29 05:35:17;;;;;;;9.77;7.80;;;;;;;-2.42;100.00;98440.28;5091212;28;20256;-79
2023/11/29 05:37:53;;;;;;;12.10;7.97;;;;;;;-2.41;100.00;98443.72;5095104;28;20215;-80
2023/11/29 05:40:20;;;;;;;10.60;7.63;;;;;;;-2.48;100.00;98446.22;5101521;28;20191;-81
2023/11/29 05:42:47;;;;;;;11.07;8.50;;;;;;;-2.54;100.00;98441.63;5098170;28;20648;-80
2023/11/29 05:45:15;;;;;;;10.87;7.70;;;;;;;-2.57;100.00;98441.97;5109849;28;20203;-79
2023/11/29 05:47:43;;;;;;;11.97;8.87;;;;;;;-2.60;100.00;98438.81;5091548;28;20273;-82
2023/11/29 05:50:14;;;;;;;14.23;8.83;;;;;;;-2.66;100.00;98445.56;5106432;28;20242;-82
2023/11/29 05:52:40;;;;;;;11.20;8.40;;;;;;;-2.68;100.00;98450.16;5100735;28;20196;-81
2023/11/29 05:55:11;;;;;;;11.80;8.87;;;;;;;-2.75;100.00;98457.03;5093338;28;20195;-80
2023/11/29 05:57:38;;;;;;;11.77;9.03;;;;;;;-2.74;100.00;98462.09;5097977;28;20211;-83
2023/11/29 06:00:08;;;;;;;16.00;9.60;;;;;;;-2.86;100.00;98458.19;5102080;28;20192;-81
2023/11/29 06:02:54;;;;;;;11.07;8.57;;;;;;;-2.93;100.00;98470.28;5100952;28;20191;-78
2023/11/29 06:05:21;;;;;;;12.80;9.27;;;;;;;-3.01;100.00;98470.28;5103748;28;20257;-78
2023/11/29 06:07:50;;;;;;;11.80;9.47;;;;;;;-3.05;100.00;98481.25;5096875;28;20207;-79
2023/11/29 06:10:16;;;;;;;12.90;9.50;;;;;;;-3.12;100.00;98484.50;5080441;28;20257;-81
2023/11/29 06:12:54;;;;;;;12.10;8.93;;;;;;;-3.18;100.00;98484.34;5088664;28;20670;-79
2023/11/29 06:15:25;;;;;;;13.10;9.50;;;;;;;-3.22;100.00;98494.31;5100001;28;20200;-79
2023/11/29 06:17:55;;;;;;;11.93;9.83;;;;;;;-3.27;100.00;98488.75;5105005;28;20278;-80
2023/11/29 06:20:23;;;;;;;13.20;9.80;;;;;;;-3.30;100.00;98490.84;5101077;28;20199;-78
2023/11/29 06:22:50;;;;;;;13.33;9.37;;;;;;;-3.36;100.00;98486.25;5095152;28;20192;-81
2023/11/29 06:25:18;;;;;;;12.87;10.10;;;;;;;-3.35;100.00;98487.88;5090047;28;20206;-79
2023/11/29 06:27:45;;;;;;;11.43;9.27;;;;;;;-3.39;100.00;98490.00;5104337;28;20212;-80
2023/11/29 06:30:16;;;;;;;12.13;9.33;;;;;;;-3.42;100.00;98492.97;5070083;28;20199;-79
2023/11/29 06:32:44;;;;;;;12.57;9.50;;;;;;;-3.45;100.00;98501.09;5104667;28;20260;-79
2023/11/29 06:35:13;;;;;;;13.07;9.90;;;;;;;-3.45;100.00;98498.50;5096589;28;20295;-80
2023/11/29 06:37:47;;;;;;;12.17;9.43;;;;;;;-3.48;100.00;98498.00;5099456;28;20264;-80
2023/11/29 06:40:25;;;;;;;12.50;9.43;;;;;;;-3.50;100.00;98497.34;5090732;28;20191;-79
2023/11/29 06:42:57;;;;;;;12.20;9.27;;;;;;;-3.52;100.00;98507.97;5097442;28;20246;-81
2023/11/29 06:45:25;;;;;;;11.77;9.50;;;;;;;-3.50;100.00;98503.41;5104570;28;20870;-80
2023/11/29 06:47:54;;;;;;;11.47;9.63;;;;;;;-3.49;100.00;98519.91;5093570;28;20710;-80
2023/11/29 06:50:22;;;;;;;13.67;9.70;;;;;;;-3.48;100.00;98516.31;5099258;28;20231;-79
2023/11/29 06:52:55;;;;;;;12.17;9.43;;;;;;;-3.47;100.00;98525.81;5087985;28;20257;-79
2023/11/29 06:55:22;;;;;;;12.47;9.73;;;;;;;-3.42;100.00;98526.19;5098977;28;20195;-80
2023/11/29 06:57:49;;;;;;;12.93;9.63;;;;;;;-3.31;100.00;98523.28;5094529;28;20560;-80
2023/11/29 07:00:16;;;;;;;11.90;9.47;;;;;;;-3.26;100.00;98524.41;5105452;28;20287;-79
2023/11/29 07:02:46;;;;;;;12.80;10.03;;;;;;;-3.19;100.00;98520.19;5096833;28;20222;-80
2023/11/29 07:05:13;;;;;;;13.97;10.47;;;;;;;-3.14;100.00;98519.72;5114532;28;20290;-80
2023/11/29 07:07:43;;;;;;;14.43;10.17;;;;;;;-3.08;100.00;98531.38;5084951;28;20218;-78
2023/11/29 07:10:10;;;;;;;12.77;9.97;;;;;;;-3.04;100.00;98524.81;5105810;28;20199;-82
2023/11/29 07:12:37;;;;;;;14.47;10.40;;;;;;;-2.98;100.00;98534.63;5107860;28;20227;-79
2023/11/29 07:15:06;;;;;;;17.83;11.23;;;;;;;-2.90;100.00;98542.53;5102101;28;20192;-80
2023/11/29 07:17:33;;;;;;;20.43;14.50;;;;;;;-2.85;100.00;98541.09;5100784;28;20187;-80
2023/11/29 07:20:00;;;;;;;16.23;12.10;;;;;;;-2.80;100.00;98551.88;5100439;28;20202;-81
2023/11/29 07:22:28;;;;;;;13.93;10.80;;;;;;;-2.77;100.00;98546.34;5112015;28;20199;-79
2023/11/29 07:24:56;;;;;;;13.90;11.00;;;;;;;-2.71;100.00;98543.03;5096650;28;20188;-79
2023/11/29 07:27:23;;;;;;;15.30;11.40;;;;;;;-2.64;100.00;98545.03;5108112;28;20207;-79
2023/11/29 07:29:50;;;;;;;14.37;10.73;;;;;;;-2.62;100.00;98548.31;5100744;28;20203;-80
2023/11/29 07:32:22;;;;;;;12.93;10.50;;;;;;;-2.50;100.00;98557.50;5099748;28;20207;-80
2023/11/29 07:34:52;;;;;;;14.47;11.20;;;;;;;-2.43;100.00;98550.63;5102468;28;20268;-80
2023/11/29 07:37:20;;;;;;;15.90;11.10;;;;;;;-2.43;100.00;98553.25;5099387;28;20204;-80
2023/11/29 07:39:53;;;;;;;14.33;10.37;;;;;;;-2.41;100.00;98559.97;5093667;28;20206;-79
2023/11/29 07:42:22;;;;;;;13.17;10.07;;;;;;;-2.39;100.00;98558.00;5107044;28;20240;-83
2023/11/29 07:44:55;;;;;;;13.57;10.10;;;;;;;-2.38;100.00;98566.72;5091649;28;20205;-78
2023/11/29 07:47:24;;;;;;;14.70;10.73;;;;;;;-2.38;100.00;98575.38;5104523;28;20207;-80
2023/11/29 07:49:54;;;;;;;20.67;13.07;;;;;;;-2.34;100.00;98581.13;5102923;28;20232;-80
2023/11/29 07:52:23;;;;;;;37.80;19.90;;;;;;;-2.31;100.00;98599.16;5102210;28;20206;-78
2023/11/29 07:54:58;;;;;;;45.97;23.73;;;;;;;-2.29;100.00;98599.84;5093493;28;20184;-78
2023/11/29 07:57:25;;;;;;;25.90;15.90;;;;;;;-2.23;100.00;98599.97;5107813;28;20266;-81
2023/11/29 07:59:54;;;;;;;16.40;11.97;;;;;;;-2.13;100.00;98593.75;5103597;28;20694;-80
2023/11/29 08:02:21;;;;;;;13.90;11.47;;;;;;;-2.07;100.00;98591.28;5088780;28;20266;-81
2023/11/29 08:04:48;;;;;;;14.90;11.50;;;;;;;-2.01;100.00;98598.53;5115133;28;20219;-78
2023/11/29 08:07:16;;;;;;;14.33;11.63;;;;;;;-1.91;100.00;98607.03;5106953;28;20198;-77
2023/11/29 08:09:47;;;;;;;17.03;12.30;;;;;;;-1.84;100.00;98602.78;5113732;28;20218;-80
2023/11/29 08:12:15;;;;;;;15.07;11.23;;;;;;;-1.75;100.00;98603.56;5105448;28;20208;-80
2023/11/29 08:14:42;;;;;;;14.10;10.87;;;;;;;-1.65;100.00;98609.47;5103125;28;20218;-79
2023/11/29 08:17:12;;;;;;;11.97;10.27;;;;;;;-1.60;100.00;98606.34;5105642;28;20195;-78
2023/11/29 08:19:39;;;;;;;13.03;9.97;;;;;;;-1.55;100.00;98610.13;5104487;28;20234;-80
2023/11/29 08:22:09;;;;;;;13.33;10.80;;;;;;;-1.48;100.00;98612.88;5114870;28;20214;-81
2023/11/29 08:24:38;;;;;;;13.23;9.97;;;;;;;-1.40;100.00;98607.63;5109834;28;20719;-78
2023/11/29 08:27:10;;;;;;;13.30;10.80;;;;;;;-1.32;100.00;98618.09;5101758;28;20200;-79
2023/11/29 08:29:38;;;;;;;12.80;10.20;;;;;;;-1.27;100.00;98620.22;5104107;28;20220;-78
2023/11/29 08:32:05;;;;;;;12.23;9.80;;;;;;;-1.24;100.00;98619.88;5101979;28;20286;-80
2023/11/29 08:34:40;;;;;;;11.60;9.40;;;;;;;-1.13;100.00;98616.88;5111423;28;20225;-79
2023/11/29 08:37:07;;;;;;;10.90;9.03;;;;;;;-1.07;100.00;98616.19;5086813;28;20203;-80
2023/11/29 08:39:34;;;;;;;10.57;9.03;;;;;;;-0.99;100.00;98608.28;5096439;28;20204;-82
2023/11/29 08:42:04;;;;;;;9.93;8.20;;;;;;;-1.05;100.00;98596.63;5097757;28;20679;-80
2023/11/29 08:44:32;;;;;;;11.20;9.17;;;;;;;-1.00;100.00;98601.38;5092292;28;20273;-82
2023/11/29 08:47:00;;;;;;;11.70;8.93;;;;;;;-0.97;100.00;98601.84;5098009;28;20267;-83
2023/11/29 08:49:27;;;;;;;9.27;8.00;;;;;;;-1.03;100.00;98607.00;5103276;28;20243;-79
2023/11/29 08:51:55;;;;;;;9.83;8.73;;;;;;;-0.95;100.00;98613.03;5100521;28;20223;-80
2023/11/29 08:54:32;;;;;;;10.17;8.67;;;;;;;-0.84;100.00;98600.50;5100117;28;20195;-80
2023/11/29 08:56:59;;;;;;;10.13;8.63;;;;;;;-0.73;100.00;98606.19;5096468;28;20191;-79
2023/11/29 08:59:25;;;;;;;9.97;8.60;;;;;;;-0.53;100.00;98601.31;5094229;28;20207;-79
2023/11/29 09:01:54;;;;;;;9.43;8.37;;;;;;;-0.29;100.00;98603.78;5106157;28;20227;-80
2023/11/29 09:04:24;;;;;;;10.53;8.53;;;;;;;-0.06;100.00;98611.66;5102063;28;20184;-80
2023/11/29 09:06:53;;;;;;;10.60;8.20;;;;;;;0.06;100.00;98599.69;5102777;28;20202;-79
2023/11/29 09:09:20;;;;;;;9.40;8.00;;;;;;;0.16;100.00;98604.72;5102375;28;20614;-79
2023/11/29 09:11:49;;;;;;;9.37;8.33;;;;;;;0.32;100.00;98613.31;5095459;28;20747;-78
2023/11/29 09:14:19;;;;;;;9.70;7.83;;;;;;;0.43;100.00;98604.94;5091322;28;20188;-79
2023/11/29 09:16:45;;;;;;;9.07;7.83;;;;;;;0.49;100.00;98590.25;5107736;28;20204;-82
2023/11/29 09:19:12;;;;;;;8.83;7.33;;;;;;;0.54;100.00;98594.97;5096544;28;20199;-79
2023/11/29 09:21:42;;;;;;;7.77;6.97;;;;;;;0.58;100.00;98591.78;5102432;28;20275;-80
2023/11/29 09:24:10;;;;;;;8.77;7.20;;;;;;;0.67;100.00;98600.44;5107696;28;20192;-80
2023/11/29 09:26:40;;;;;;;8.87;6.67;;;;;;;0.68;100.00;98604.69;5101321;27;20200;-78
2023/11/29 09:29:07;;;;;;;8.50;7.43;;;;;;;0.67;100.00;98601.25;5105029;28;20215;-79
2023/11/29 09:31:39;;;;;;;7.00;6.30;;;;;;;0.71;100.00;98606.97;5086951;28;20687;-79
2023/11/29 09:34:06;;;;;;;9.60;6.47;;;;;;;0.77;100.00;98606.25;5101528;28;20278;-79
2023/11/29 09:36:33;;;;;;;7.93;7.13;;;;;;;0.90;100.00;98601.16;5089922;28;20242;-79
2023/11/29 09:39:12;;;;;;;7.70;6.90;;;;;;;1.07;100.00;98610.53;5101440;28;20576;-78
2023/11/29 09:41:39;;;;;;;9.30;8.03;;;;;;;1.30;100.00;98616.50;5099853;28;20215;-78
2023/11/29 09:44:07;;;;;;;9.00;7.53;;;;;;;1.37;100.00;98610.44;5098707;28;20695;-79
2023/11/29 09:46:35;;;;;;;8.07;7.27;;;;;;;1.51;100.00;98609.59;5104662;28;20611;-79
2023/11/29 09:49:04;;;;;;;8.33;7.50;;;;;;;1.70;100.00;98617.72;5094155;28;20691;-78
2023/11/29 09:51:31;;;;;;;8.23;7.37;;;;;;;1.90;100.00;98611.84;5085291;28;20192;-78
2023/11/29 09:53:58;;;;;;;8.87;7.50;;;;;;;1.77;100.00;98604.59;5078202;28;20192;-79
2023/11/29 09:56:24;;;;;;;7.53;6.73;;;;;;;1.66;100.00;98600.63;5105360;28;20192;-79
2023/11/29 09:58:53;;;;;;;9.40;6.93;;;;;;;1.78;100.00;98601.75;5097396;28;20192;-79
2023/11/29 10:01:21;;;;;;;7.13;6.23;;;;;;;2.20;100.00;98592.16;5108544;28;20206;-78
2023/11/29 10:04:16;;;;;;;7.93;7.10;;;;;;;2.22;100.00;98590.97;5104913;28;20685;-81
2023/11/29 10:06:45;;;;;;;6.40;5.63;;;;;;;2.27;100.00;98594.88;5112929;28;20192;-77
2023/11/29 10:09:16;;;;;;;5.23;4.57;;;;;;;2.50;100.00;98598.09;5103945;28;20215;-78
2023/11/29 10:11:43;;;;;;;5.23;4.63;;;;;;;2.53;100.00;98577.38;5105201;28;20217;-78
2023/11/29 10:14:10;;;;;;;5.47;4.20;;;;;;;2.63;100.00;98590.25;5078641;28;20302;-79
2023/11/29 10:16:37;;;;;;;4.80;4.40;;;;;;;2.65;100.00;98589.06;5104391;28;20191;-79
2023/11/29 10:19:07;;;;;;;4.23;3.87;;;;;;;2.63;100.00;98590.25;5095531;28;20196;-79
2023/11/29 10:21:34;;;;;;;3.60;3.30;;;;;;;2.56;100.00;98582.28;5099748;28;20200;-80
2023/11/29 10:24:01;;;;;;;2.83;2.63;;;;;;;2.55;100.00;98578.00;5096750;28;20203;-80
2023/11/29 10:26:29;;;;;;;3.07;2.67;;;;;;;2.53;100.00;98580.00;5098488;28;20192;-79
2023/11/29 10:28:58;;;;;;;3.40;3.10;;;;;;;2.47;100.00;98587.91;5111455;28;20205;-78
2023/11/29 10:31:25;;;;;;;3.40;3.10;;;;;;;2.41;100.00;98578.09;5107683;28;20192;-79
2023/11/29 10:33:55;;;;;;;2.90;2.70;;;;;;;2.30;100.00;98575.97;5074822;28;20737;-80
2023/11/29 10:36:24;;;;;;;3.10;2.80;;;;;;;2.29;100.00;98577.00;5091565;28;20200;-78
2023/11/29 10:39:18;;;;;;;3.37;3.00;;;;;;;2.25;100.00;98581.84;5083175;28;20196;-79
2023/11/29 10:41:52;;;;;;;3.10;2.80;;;;;;;2.09;100.00;98582.13;5073223;28;20208;-80
2023/11/29 10:44:28;;;;;;;3.40;3.10;;;;;;;2.04;100.00;98577.41;5101769;28;20200;-79
2023/11/29 10:47:37;;;;;;;3.47;3.00;;;;;;;2.14;100.00;98575.28;5097004;28;20196;-80
2023/11/29 10:50:24;;;;;;;3.30;3.07;;;;;;;2.10;100.00;98571.34;5093965;28;20238;-80
2023/11/29 10:52:52;;;;;;;3.13;2.83;;;;;;;2.05;100.00;98563.19;5100900;28;20199;-81
2023/11/29 10:55:22;;;;;;;3.67;3.27;;;;;;;2.20;100.00;98568.38;5104142;28;20698;-79
2023/11/29 10:57:58;;;;;;;3.60;3.30;;;;;;;2.11;100.00;98558.97;5072359;28;20228;-80
2023/11/29 11:00:26;;;;;;;3.10;2.90;;;;;;;2.14;100.00;98558.59;5082645;28;20188;-80
2023/11/29 11:02:56;;;;;;;3.57;3.27;;;;;;;2.05;100.00;98562.38;5092490;28;20192;-80
2023/11/29 11:05:26;;;;;;;3.60;3.30;;;;;;;2.18;100.00;98560.66;5092231;28;20307;-79
2023/11/29 11:07:56;;;;;;;3.53;3.23;;;;;;;2.36;100.00;98569.94;5080600;28;20258;-80
2023/11/29 11:10:25;;;;;;;4.17;3.27;;;;;;;2.34;100.00;98571.94;5082215;28;20212;-80
2023/11/29 11:12:55;;;;;;;3.10;2.90;;;;;;;2.46;100.00;98573.88;5099418;28;20191;-78
2023/11/29 11:15:28;;;;;;;4.23;3.57;;;;;;;2.68;100.00;98577.25;5102540;28;20196;-82
2023/11/29 11:18:03;;;;;;;3.60;3.30;;;;;;;2.85;100.00;98575.91;5101820;28;20198;-79
2023/11/29 11:20:55;;;;;;;3.50;3.20;;;;;;;3.03;100.00;98576.19;5089117;28;20253;-82
2023/11/29 11:23:24;;;;;;;3.27;2.97;;;;;;;3.02;100.00;98574.59;5087132;28;20200;-79
2023/11/29 11:26:09;;;;;;;3.70;3.40;;;;;;;3.06;100.00;98575.00;5092351;28;20188;-79
2023/11/29 11:28:37;;;;;;;3.43;3.13;;;;;;;3.23;100.00;98576.28;5098028;28;20234;-80
2023/11/29 11:31:08;;;;;;;3.97;3.40;;;;;;;3.44;100.00;98581.47;5115548;28;20203;-79